Time;durP1;ratioP1;P1;durP2;ratioP2;P2;SDS_P1;SDS_P2;PMS_P1;PMS_P2;Temp;Humidity;BMP_temperature;BMP_pressure;BME280_temperature;BME280_humidity;BME280_pressure;Samples;Min_cycle;Max_cycle;Signal;HPM_P1;HPM_P2
2021/04/05 00:01:44;;;;;;;19.33;9.00;;;4.40;99.90;;;;;;473448;251;27513;-70
2021/04/05 00:03:45;;;;;;;15.25;8.40;;;4.40;99.90;;;;;;473487;251;27534;-70
2021/04/05 00:05:46;;;;;;;17.42;9.35;;;4.40;99.90;;;;;;473527;251;27509;-70
2021/04/05 00:07:48;;;;;;;21.95;10.13;;;4.40;99.90;;;;;;473592;250;27625;-70
2021/04/05 00:09:49;;;;;;;21.20;9.32;;;4.40;99.90;;;;;;473124;249;27667;-72
2021/04/05 00:11:50;;;;;;;25.23;9.95;;;4.40;99.90;;;;;;473640;251;27946;-70
2021/04/05 00:13:51;;;;;;;21.87;11.23;;;4.40;99.90;;;;;;474055;243;27946;-73
2021/04/05 00:15:53;;;;;;;23.95;9.10;;;4.40;99.90;;;;;;473035;249;27629;-72
2021/04/05 00:17:54;;;;;;;20.30;9.43;;;4.50;99.90;;;;;;475322;250;27454;-72
2021/04/05 00:19:55;;;;;;;19.87;10.40;;;4.50;99.90;;;;;;474932;250;27599;-73
2021/04/05 00:21:57;;;;;;;20.58;9.80;;;4.50;99.90;;;;;;474992;250;27600;-72
2021/04/05 00:23:58;;;;;;;16.92;8.77;;;4.60;99.90;;;;;;475144;250;27567;-73
2021/04/05 00:25:59;;;;;;;14.40;9.30;;;4.60;99.90;;;;;;475423;250;28756;-72
2021/04/05 00:28:01;;;;;;;17.15;9.85;;;4.60;99.90;;;;;;475448;250;28062;-73
2021/04/05 00:30:01;;;;;;;19.55;8.70;;;4.70;99.90;;;;;;475459;250;27628;-73
2021/04/05 00:32:03;;;;;;;16.90;9.30;;;4.60;99.90;;;;;;475466;250;27511;-72
2021/04/05 00:34:04;;;;;;;20.15;8.93;;;4.60;99.90;;;;;;475474;250;27683;-72
2021/04/05 00:36:05;;;;;;;21.62;9.90;;;4.60;99.90;;;;;;475404;249;27922;-70
2021/04/05 00:38:06;;;;;;;21.35;9.75;;;4.60;99.90;;;;;;475462;250;27537;-70
2021/04/05 00:40:08;;;;;;;21.35;9.88;;;4.60;99.90;;;;;;475402;250;28782;-71
2021/04/05 00:42:09;;;;;;;18.55;7.97;;;4.60;99.90;;;;;;475360;250;27975;-70
2021/04/05 00:44:10;;;;;;;16.60;9.15;;;4.50;99.90;;;;;;475270;250;27582;-70
2021/04/05 00:46:11;;;;;;;19.95;9.57;;;4.60;99.90;;;;;;475166;250;27482;-70
2021/04/05 00:48:13;;;;;;;17.23;9.18;;;4.60;99.90;;;;;;475307;250;27447;-70
2021/04/05 00:50:14;;;;;;;21.77;10.27;;;4.60;99.90;;;;;;474808;248;28065;-70
2021/04/05 00:52:15;;;;;;;21.58;9.80;;;4.60;99.90;;;;;;474299;250;27482;-69
2021/04/05 00:54:17;;;;;;;21.40;9.85;;;4.60;99.90;;;;;;475167;250;28034;-70
2021/04/05 00:56:18;;;;;;;17.65;9.27;;;4.60;99.90;;;;;;475235;250;28131;-70
2021/04/05 00:58:19;;;;;;;19.40;9.93;;;4.50;99.90;;;;;;475269;250;27539;-69
2021/04/05 01:00:20;;;;;;;26.67;9.80;;;4.50;99.90;;;;;;475260;250;27475;-70
2021/04/05 01:02:22;;;;;;;24.17;9.40;;;4.50;99.90;;;;;;475310;250;27666;-70
2021/04/05 01:04:23;;;;;;;18.83;9.35;;;4.50;99.90;;;;;;475263;250;27463;-71
2021/04/05 01:06:24;;;;;;;19.12;10.25;;;4.40;99.90;;;;;;475283;250;27558;-70
2021/04/05 01:08:25;;;;;;;21.85;9.55;;;4.40;99.90;;;;;;475337;250;28148;-69
2021/04/05 01:10:27;;;;;;;21.90;9.15;;;4.30;99.90;;;;;;475350;250;28758;-70
2021/04/05 01:12:28;;;;;;;22.98;10.60;;;4.40;99.90;;;;;;475347;250;27486;-70
2021/04/05 01:14:29;;;;;;;28.40;10.48;;;4.40;99.90;;;;;;475339;250;27554;-71
2021/04/05 01:16:30;;;;;;;19.80;10.13;;;4.40;99.90;;;;;;475341;250;27669;-73
2021/04/05 01:18:32;;;;;;;21.52;9.13;;;4.40;99.90;;;;;;475380;250;27463;-73
2021/04/05 01:20:33;;;;;;;17.95;8.60;;;4.30;99.90;;;;;;475391;250;28071;-73
2021/04/05 01:22:34;;;;;;;17.27;10.63;;;4.20;99.90;;;;;;475362;250;28091;-74
2021/04/05 01:24:35;;;;;;;24.85;9.80;;;4.30;99.90;;;;;;475319;250;27534;-72
2021/04/05 01:26:37;;;;;;;26.33;9.52;;;4.30;99.90;;;;;;475340;250;27546;-70
2021/04/05 01:28:38;;;;;;;23.80;10.57;;;4.20;99.90;;;;;;483490;246;27432;-71
2021/04/05 01:30:39;;;;;;;22.85;11.12;;;4.20;99.90;;;;;;493454;241;27464;-69
2021/04/05 01:32:40;;;;;;;18.80;10.02;;;4.30;99.90;;;;;;493444;241;28016;-70
2021/04/05 01:34:42;;;;;;;22.45;9.88;;;4.30;99.90;;;;;;493449;240;28719;-71
2021/04/05 01:36:43;;;;;;;21.48;9.80;;;4.30;99.90;;;;;;493515;241;27942;-70
2021/04/05 01:38:44;;;;;;;19.85;8.90;;;4.30;99.90;;;;;;493597;241;27581;-71
2021/04/05 01:40:45;;;;;;;21.37;9.60;;;4.30;99.90;;;;;;493639;241;27506;-69
2021/04/05 01:42:47;;;;;;;17.92;10.00;;;4.20;99.90;;;;;;493635;241;27497;-70
2021/04/05 01:44:48;;;;;;;21.27;10.27;;;4.20;99.90;;;;;;493623;241;27952;-70
2021/04/05 01:46:49;;;;;;;24.45;9.43;;;4.10;99.90;;;;;;493633;241;27466;-70
2021/04/05 01:48:50;;;;;;;19.17;9.38;;;4.20;99.90;;;;;;493617;241;27992;-70
2021/04/05 01:50:52;;;;;;;22.48;10.30;;;4.10;99.90;;;;;;493624;241;27847;-70
2021/04/05 01:52:53;;;;;;;17.15;9.65;;;4.10;99.90;;;;;;493470;241;27609;-69
2021/04/05 01:54:54;;;;;;;20.17;10.63;;;4.20;99.90;;;;;;493479;241;27424;-70
2021/04/05 01:56:56;;;;;;;19.83;9.27;;;4.20;99.90;;;;;;493484;241;27556;-70
2021/04/05 01:58:57;;;;;;;24.92;10.57;;;4.20;99.90;;;;;;493480;241;27508;-70
2021/04/05 02:00:58;;;;;;;20.55;10.32;;;4.20;99.90;;;;;;493448;241;27501;-70
2021/04/05 02:02:59;;;;;;;22.45;10.90;;;4.20;99.90;;;;;;493453;239;28109;-70
2021/04/05 02:05:01;;;;;;;21.92;9.82;;;4.20;99.90;;;;;;493475;241;27984;-70
2021/04/05 02:07:02;;;;;;;23.52;10.98;;;4.20;99.90;;;;;;493539;241;27466;-70
2021/04/05 02:09:03;;;;;;;24.35;10.68;;;4.20;99.90;;;;;;493536;241;27520;-70
2021/04/05 02:11:04;;;;;;;27.85;11.18;;;4.20;99.90;;;;;;493561;241;27514;-70
2021/04/05 02:13:06;;;;;;;21.40;10.25;;;4.10;99.90;;;;;;493563;241;27478;-70
2021/04/05 02:15:07;;;;;;;27.95;11.20;;;4.10;99.90;;;;;;493565;241;27564;-70
2021/04/05 02:17:08;;;;;;;23.67;11.10;;;4.10;99.90;;;;;;493580;241;28616;-71
2021/04/05 02:19:09;;;;;;;27.50;10.68;;;4.10;99.90;;;;;;493458;239;29019;-70
2021/04/05 02:21:11;;;;;;;39.75;12.48;;;4.10;99.90;;;;;;493510;241;27503;-69
2021/04/05 02:23:12;;;;;;;31.12;10.95;;;4.10;99.90;;;;;;493542;241;27517;-69
2021/04/05 02:25:13;;;;;;;30.70;12.60;;;4.10;99.90;;;;;;493502;241;27569;-70
2021/04/05 02:27:14;;;;;;;29.05;11.55;;;4.10;99.90;;;;;;493281;241;27870;-70
2021/04/05 02:29:16;;;;;;;31.58;11.55;;;4.10;99.90;;;;;;493431;241;27624;-71
2021/04/05 02:31:17;;;;;;;33.70;11.00;;;4.10;99.90;;;;;;493404;241;28012;-70
2021/04/05 02:33:18;;;;;;;24.98;11.10;;;4.20;99.90;;;;;;493429;241;27981;-70
2021/04/05 02:35:19;;;;;;;22.00;10.65;;;4.20;99.90;;;;;;493453;241;27576;-70
2021/04/05 02:37:21;;;;;;;28.83;11.12;;;4.20;99.90;;;;;;493426;241;27508;-71
2021/04/05 02:39:22;;;;;;;21.70;8.90;;;4.20;99.90;;;;;;493434;241;27525;-70
2021/04/05 02:41:23;;;;;;;31.00;10.70;;;4.20;99.90;;;;;;493437;241;27532;-70
2021/04/05 02:43:24;;;;;;;29.27;12.32;;;4.30;99.90;;;;;;493436;241;28849;-70
2021/04/05 02:45:26;;;;;;;26.40;11.00;;;4.30;99.90;;;;;;493477;241;28053;-69
2021/04/05 02:47:27;;;;;;;21.90;10.63;;;4.30;99.90;;;;;;493407;241;27504;-70
2021/04/05 02:49:28;;;;;;;20.77;10.10;;;4.30;99.90;;;;;;493533;241;27417;-70
2021/04/05 02:51:29;;;;;;;23.52;10.73;;;4.30;99.90;;;;;;493582;241;27564;-70
2021/04/05 02:53:31;;;;;;;21.98;9.30;;;4.30;99.90;;;;;;493537;241;27627;-71
2021/04/05 02:55:32;;;;;;;23.27;10.18;;;4.30;99.90;;;;;;493465;241;27565;-70
2021/04/05 02:57:33;;;;;;;20.25;9.75;;;4.20;99.90;;;;;;492819;241;28399;-69
2021/04/05 02:59:35;;;;;;;21.75;10.70;;;4.20;99.90;;;;;;492862;241;28113;-70
2021/04/05 03:01:36;;;;;;;17.23;10.20;;;4.20;99.90;;;;;;493469;241;27608;-69
2021/04/05 03:03:37;;;;;;;30.02;10.95;;;4.20;99.90;;;;;;493488;241;27517;-70
2021/04/05 03:05:38;;;;;;;20.27;10.82;;;4.30;99.90;;;;;;493533;241;27468;-70
2021/04/05 03:07:40;;;;;;;19.90;10.50;;;4.30;99.90;;;;;;493540;241;27500;-70
2021/04/05 03:09:41;;;;;;;23.50;10.27;;;4.30;99.90;;;;;;493577;241;28021;-71
2021/04/05 03:11:44;;;;;;;24.70;10.43;;;4.30;99.90;;;;;;493589;241;27917;-69
2021/04/05 03:13:43;;;;;;;24.25;11.60;;;4.20;99.90;;;;;;493504;240;27520;-70
2021/04/05 03:15:45;;;;;;;19.67;10.88;;;4.20;99.90;;;;;;493611;241;27544;-70
2021/04/05 03:17:46;;;;;;;26.92;11.68;;;4.20;99.90;;;;;;493562;239;27503;-71
2021/04/05 03:19:47;;;;;;;24.12;11.25;;;4.20;99.90;;;;;;493459;241;27509;-70
2021/04/05 03:21:48;;;;;;;25.20;11.57;;;4.20;99.90;;;;;;493470;241;27478;-70
2021/04/05 03:23:50;;;;;;;18.00;10.60;;;4.20;99.90;;;;;;493464;241;28080;-70
2021/04/05 03:25:51;;;;;;;20.52;11.15;;;4.20;99.90;;;;;;493430;241;28064;-70
2021/04/05 03:27:52;;;;;;;27.17;10.60;;;4.20;99.90;;;;;;493425;241;27508;-70
2021/04/05 03:29:53;;;;;;;22.23;10.80;;;4.20;99.90;;;;;;493442;241;27500;-71
2021/04/05 03:31:55;;;;;;;23.48;10.68;;;4.20;99.90;;;;;;493467;241;27480;-70
2021/04/05 03:33:56;;;;;;;25.08;10.88;;;4.20;99.90;;;;;;493400;241;27548;-70
2021/04/05 03:35:57;;;;;;;19.80;11.02;;;4.10;99.90;;;;;;493425;239;27961;-70
2021/04/05 03:37:58;;;;;;;25.95;12.55;;;4.10;99.90;;;;;;493399;241;28073;-70
2021/04/05 03:40:00;;;;;;;21.90;11.75;;;4.10;99.90;;;;;;493426;241;27592;-71
2021/04/05 03:42:01;;;;;;;25.58;12.07;;;4.10;99.90;;;;;;493458;241;27588;-70
2021/04/05 03:44:02;;;;;;;24.75;12.00;;;4.10;99.90;;;;;;493412;241;27522;-71
2021/04/05 03:46:03;;;;;;;33.60;12.65;;;4.10;99.90;;;;;;493416;241;27417;-70
2021/04/05 03:48:05;;;;;;;31.70;12.20;;;4.10;99.90;;;;;;493421;241;27577;-70
2021/04/05 03:50:06;;;;;;;33.90;12.73;;;4.10;99.90;;;;;;493410;241;27981;-70
2021/04/05 03:52:07;;;;;;;27.08;13.15;;;4.10;99.90;;;;;;493427;241;27565;-70
2021/04/05 03:54:09;;;;;;;27.52;12.05;;;4.10;99.90;;;;;;493392;241;27516;-70
2021/04/05 03:56:10;;;;;;;28.40;12.55;;;4.00;99.90;;;;;;493432;241;27493;-70
2021/04/05 03:58:12;;;;;;;28.17;13.10;;;4.10;99.90;;;;;;493471;241;27623;-70
2021/04/05 04:00:12;;;;;;;25.73;13.65;;;4.00;99.90;;;;;;493454;241;27494;-69
2021/04/05 04:02:14;;;;;;;35.30;12.98;;;4.00;99.90;;;;;;493526;241;27949;-70
2021/04/05 04:04:21;;;;;;;25.35;13.55;;;4.00;99.90;;;;;;493533;241;27990;-70
2021/04/05 04:06:17;;;;;;;26.40;12.95;;;4.00;99.90;;;;;;493353;240;27573;-70
2021/04/05 04:08:28;;;;;;;26.98;12.98;;;4.00;99.90;;;;;;493720;241;27589;-70
2021/04/05 04:10:22;;;;;;;29.23;13.00;;;4.00;99.90;;;;;;493267;240;27605;-72
2021/04/05 04:12:23;;;;;;;31.50;13.43;;;4.00;99.90;;;;;;493729;241;27378;-71
2021/04/05 04:14:24;;;;;;;30.48;13.20;;;4.10;99.90;;;;;;493724;241;27477;-71
2021/04/05 04:16:25;;;;;;;27.90;14.20;;;4.10;99.90;;;;;;493749;241;27580;-70
2021/04/05 04:18:27;;;;;;;31.80;13.70;;;4.10;99.90;;;;;;493756;241;27490;-71
2021/04/05 04:20:28;;;;;;;28.98;14.43;;;4.00;99.90;;;;;;493793;241;27838;-70
2021/04/05 04:22:31;;;;;;;32.08;15.27;;;4.00;99.90;;;;;;493737;241;27913;-71
2021/04/05 04:24:30;;;;;;;34.80;16.10;;;4.10;99.90;;;;;;493612;240;27498;-70
2021/04/05 04:26:32;;;;;;;37.55;16.52;;;4.00;99.90;;;;;;493606;241;27528;-70
2021/04/05 04:28:33;;;;;;;35.70;16.12;;;4.00;99.90;;;;;;493482;241;27569;-70
2021/04/05 04:30:35;;;;;;;41.45;17.35;;;4.00;99.90;;;;;;493429;241;27620;-71
2021/04/05 04:32:35;;;;;;;34.83;15.55;;;4.00;99.90;;;;;;493471;240;27492;-71
2021/04/05 04:34:37;;;;;;;45.80;17.55;;;4.00;99.90;;;;;;493604;241;28004;-70
2021/04/05 04:36:38;;;;;;;40.78;18.00;;;4.00;99.90;;;;;;493461;240;27592;-71
2021/04/05 04:38:39;;;;;;;32.78;17.58;;;4.00;99.90;;;;;;493495;241;27607;-70
2021/04/05 04:40:40;;;;;;;40.12;17.33;;;4.00;99.90;;;;;;493589;241;27500;-71
2021/04/05 04:42:42;;;;;;;35.40;16.62;;;4.10;99.90;;;;;;493549;241;27524;-70
2021/04/05 04:44:43;;;;;;;30.40;16.30;;;4.00;99.90;;;;;;493542;241;27575;-71
2021/04/05 04:46:44;;;;;;;41.42;18.50;;;4.00;99.90;;;;;;493573;241;28084;-70
2021/04/05 04:48:45;;;;;;;42.20;18.08;;;4.00;99.90;;;;;;493603;241;28022;-70
2021/04/05 04:50:47;;;;;;;36.45;18.23;;;4.00;99.90;;;;;;493595;241;27619;-70
2021/04/05 04:52:48;;;;;;;43.05;17.17;;;4.00;99.90;;;;;;493549;241;27769;-71
2021/04/05 04:54:49;;;;;;;39.60;18.27;;;4.00;99.90;;;;;;493551;241;27497;-70
2021/04/05 04:56:50;;;;;;;42.80;18.65;;;4.00;99.90;;;;;;493462;241;27568;-70
2021/04/05 04:58:52;;;;;;;40.72;18.25;;;4.00;99.90;;;;;;493382;241;28743;-70
2021/04/05 05:00:53;;;;;;;39.15;20.05;;;4.00;99.90;;;;;;493344;241;27994;-71
2021/04/05 05:02:54;;;;;;;36.97;18.02;;;4.00;99.90;;;;;;493312;241;27599;-71
2021/04/05 05:04:56;;;;;;;44.30;19.27;;;4.10;99.90;;;;;;493355;241;27559;-70
2021/04/05 05:06:57;;;;;;;49.58;20.30;;;4.10;99.90;;;;;;493461;241;27614;-71
2021/04/05 05:08:58;;;;;;;51.00;19.60;;;4.10;99.90;;;;;;493419;241;27529;-71
2021/04/05 05:10:59;;;;;;;41.28;20.52;;;4.00;99.90;;;;;;493423;241;28013;-71
2021/04/05 05:13:01;;;;;;;41.83;19.87;;;4.00;99.90;;;;;;493402;240;28066;-71
2021/04/05 05:15:02;;;;;;;40.03;19.10;;;4.00;99.90;;;;;;493433;241;27513;-71
2021/04/05 05:17:03;;;;;;;37.40;17.75;;;4.00;99.90;;;;;;493373;241;27504;-70
2021/04/05 05:19:04;;;;;;;41.40;19.23;;;4.00;99.90;;;;;;493394;241;27513;-70
2021/04/05 05:21:06;;;;;;;44.83;20.23;;;4.00;99.90;;;;;;493431;241;27524;-70
2021/04/05 05:23:07;;;;;;;34.10;18.65;;;4.00;99.90;;;;;;493442;241;27521;-71
2021/04/05 05:25:08;;;;;;;37.25;18.12;;;4.10;99.90;;;;;;493437;241;28060;-71
2021/04/05 05:27:09;;;;;;;45.10;20.98;;;4.10;99.90;;;;;;493426;241;27510;-71
2021/04/05 05:29:11;;;;;;;47.92;20.88;;;4.10;99.90;;;;;;493422;241;27506;-70
2021/04/05 05:31:12;;;;;;;40.22;17.95;;;4.10;99.90;;;;;;493429;241;27583;-70
2021/04/05 05:33:14;;;;;;;41.00;19.23;;;4.20;99.90;;;;;;493353;241;27703;-72
2021/04/05 05:35:14;;;;;;;43.17;20.55;;;4.20;99.90;;;;;;493454;241;27512;-70
2021/04/05 05:37:16;;;;;;;37.35;19.80;;;4.20;99.90;;;;;;493449;241;27936;-71
2021/04/05 05:39:17;;;;;;;39.05;18.92;;;4.20;99.90;;;;;;493485;241;27402;-70
2021/04/05 05:41:18;;;;;;;42.13;20.27;;;4.20;99.90;;;;;;493551;241;27640;-70
2021/04/05 05:43:20;;;;;;;45.35;21.15;;;4.20;99.90;;;;;;493569;241;27942;-70
2021/04/05 05:45:21;;;;;;;46.40;19.90;;;4.30;99.90;;;;;;493541;241;27528;-70
2021/04/05 05:47:22;;;;;;;45.33;20.80;;;4.30;99.90;;;;;;493530;241;27973;-70
2021/04/05 05:49:23;;;;;;;46.33;21.87;;;4.30;99.90;;;;;;493508;241;28091;-70
2021/04/05 05:51:25;;;;;;;45.40;20.50;;;4.30;99.90;;;;;;493474;241;27502;-71
2021/04/05 05:53:26;;;;;;;52.62;21.25;;;4.30;99.90;;;;;;493413;241;27536;-71
2021/04/05 05:55:27;;;;;;;48.35;20.77;;;4.30;99.90;;;;;;493410;241;27512;-70
2021/04/05 05:57:28;;;;;;;35.83;18.98;;;4.30;99.90;;;;;;493435;241;27501;-70
2021/04/05 05:59:31;;;;;;;36.60;19.85;;;4.30;99.90;;;;;;493433;241;27937;-70
2021/04/05 06:01:31;;;;;;;41.35;20.50;;;4.40;99.90;;;;;;493367;241;28004;-70
2021/04/05 06:03:32;;;;;;;46.13;21.35;;;4.40;99.90;;;;;;493416;241;27603;-72
2021/04/05 06:05:34;;;;;;;47.45;21.40;;;4.40;99.90;;;;;;493421;241;27515;-70
2021/04/05 06:07:35;;;;;;;47.83;21.58;;;4.50;99.90;;;;;;493427;241;27512;-71
2021/04/05 06:09:36;;;;;;;43.67;21.90;;;4.50;99.90;;;;;;493476;241;27491;-71
2021/04/05 06:11:37;;;;;;;42.50;20.70;;;4.50;99.90;;;;;;493427;241;27981;-71
2021/04/05 06:13:38;;;;;;;45.53;22.75;;;4.40;99.90;;;;;;493415;241;27513;-70
2021/04/05 06:15:40;;;;;;;50.05;22.23;;;4.40;99.90;;;;;;493408;241;27502;-70
2021/04/05 06:17:41;;;;;;;54.17;22.17;;;4.50;99.90;;;;;;493443;241;27586;-71
2021/04/05 06:19:42;;;;;;;41.22;22.45;;;4.50;99.90;;;;;;493488;241;27621;-71
2021/04/05 06:21:43;;;;;;;46.08;23.00;;;4.50;99.90;;;;;;493515;241;27421;-70
2021/04/05 06:23:45;;;;;;;43.85;20.62;;;4.60;99.90;;;;;;493628;241;27956;-71
2021/04/05 06:25:46;;;;;;;40.72;20.52;;;4.50;99.90;;;;;;493578;241;27904;-71
2021/04/05 06:27:47;;;;;;;45.65;20.75;;;4.50;99.90;;;;;;493356;241;27489;-70
2021/04/05 06:29:48;;;;;;;44.28;21.60;;;4.60;99.90;;;;;;493534;241;27544;-70
2021/04/05 06:31:50;;;;;;;44.22;21.48;;;4.60;99.90;;;;;;493455;241;27599;-71
2021/04/05 06:33:51;;;;;;;48.42;21.92;;;4.60;99.90;;;;;;493544;241;27533;-72
2021/04/05 06:35:52;;;;;;;47.70;23.40;;;4.70;99.90;;;;;;493571;241;27901;-71
2021/04/05 06:37:54;;;;;;;38.65;21.08;;;4.70;99.90;;;;;;493586;241;27421;-71
2021/04/05 06:39:55;;;;;;;51.05;22.40;;;4.70;99.90;;;;;;493612;241;27566;-70
2021/04/05 06:41:56;;;;;;;46.65;23.50;;;4.80;99.90;;;;;;493525;241;27510;-71
2021/04/05 06:43:57;;;;;;;50.05;23.65;;;4.80;99.90;;;;;;493452;241;27523;-71
2021/04/05 06:45:59;;;;;;;51.00;22.33;;;4.70;99.90;;;;;;493465;241;28009;-70
2021/04/05 06:48:00;;;;;;;42.80;21.90;;;4.70;99.90;;;;;;493452;241;27961;-70
2021/04/05 06:50:01;;;;;;;49.85;22.25;;;4.60;99.90;;;;;;493441;241;27581;-70
2021/04/05 06:52:02;;;;;;;43.67;22.73;;;4.70;99.90;;;;;;493430;241;27544;-71
2021/04/05 06:54:04;;;;;;;48.20;23.27;;;4.70;99.90;;;;;;493451;241;27840;-73
2021/04/05 06:56:05;;;;;;;49.17;22.37;;;4.80;99.90;;;;;;493481;241;27540;-71
2021/04/05 06:58:06;;;;;;;50.80;23.30;;;4.80;99.90;;;;;;493356;240;28025;-71
2021/04/05 07:00:07;;;;;;;51.88;24.10;;;4.80;99.90;;;;;;493452;241;27529;-71
2021/04/05 07:02:09;;;;;;;49.67;21.95;;;4.90;99.90;;;;;;493446;241;27517;-71
2021/04/05 07:04:10;;;;;;;56.47;23.92;;;5.00;99.90;;;;;;493458;241;27864;-71
2021/04/05 07:06:11;;;;;;;46.83;23.25;;;5.00;99.90;;;;;;493453;241;27496;-71
2021/04/05 07:08:12;;;;;;;44.08;23.92;;;5.00;99.90;;;;;;493421;241;27965;-71
2021/04/05 07:10:14;;;;;;;47.45;23.58;;;4.90;99.90;;;;;;493414;241;27505;-71
2021/04/05 07:12:15;;;;;;;41.80;21.80;;;4.90;99.90;;;;;;493418;241;27480;-70
2021/04/05 07:14:16;;;;;;;44.10;22.13;;;5.00;99.90;;;;;;493350;240;27505;-71
2021/04/05 07:16:17;;;;;;;53.05;21.70;;;5.10;99.90;;;;;;493421;241;27515;-71
2021/04/05 07:18:19;;;;;;;44.20;22.30;;;5.20;99.90;;;;;;493433;241;27974;-71
2021/04/05 07:20:20;;;;;;;47.78;22.75;;;5.20;99.90;;;;;;493442;241;27625;-70
2021/04/05 07:22:21;;;;;;;57.45;21.98;;;5.20;99.90;;;;;;493444;239;27501;-71
2021/04/05 07:24:23;;;;;;;48.75;23.52;;;5.10;99.90;;;;;;493499;241;27500;-71
2021/04/05 07:26:24;;;;;;;42.80;21.90;;;5.10;99.90;;;;;;493452;241;27499;-71
2021/04/05 07:28:25;;;;;;;42.87;22.33;;;5.20;99.90;;;;;;493571;241;29273;-71
2021/04/05 07:30:26;;;;;;;45.35;23.15;;;5.30;99.90;;;;;;493561;241;29294;-71
2021/04/05 07:32:28;;;;;;;43.05;22.25;;;5.30;99.90;;;;;;493572;241;27513;-71
2021/04/05 07:34:29;;;;;;;40.85;21.70;;;5.30;99.90;;;;;;492930;241;27561;-71
2021/04/05 07:36:30;;;;;;;45.88;22.37;;;5.40;99.90;;;;;;493532;241;27512;-71
2021/04/05 07:38:31;;;;;;;44.90;22.30;;;5.30;99.90;;;;;;492643;241;27607;-72
2021/04/05 07:40:33;;;;;;;40.53;21.20;;;5.30;99.90;;;;;;492591;241;28094;-71
2021/04/05 07:42:34;;;;;;;48.10;23.02;;;5.40;99.90;;;;;;493292;241;27501;-71
2021/04/05 07:44:35;;;;;;;49.05;21.45;;;5.50;99.90;;;;;;493453;240;27532;-71
2021/04/05 07:46:36;;;;;;;37.50;20.90;;;5.60;99.90;;;;;;493444;241;27622;-70
2021/04/05 07:48:38;;;;;;;44.30;21.60;;;5.60;99.90;;;;;;493444;241;28669;-70
2021/04/05 07:50:39;;;;;;;46.67;22.17;;;5.70;99.90;;;;;;493477;241;28026;-71
2021/04/05 07:52:40;;;;;;;42.22;21.52;;;5.70;99.90;;;;;;493467;241;27505;-71
2021/04/05 07:54:41;;;;;;;46.50;22.83;;;5.80;99.90;;;;;;493481;241;27515;-71
2021/04/05 07:56:43;;;;;;;46.83;23.20;;;5.90;99.90;;;;;;493538;241;28208;-73
2021/04/05 07:58:44;;;;;;;46.40;20.60;;;5.70;99.90;;;;;;493556;241;28948;-73
2021/04/05 08:00:45;;;;;;;43.23;22.70;;;5.70;99.90;;;;;;493548;241;27587;-72
2021/04/05 08:02:47;;;;;;;52.27;23.27;;;5.80;99.90;;;;;;492593;241;29257;-70
2021/04/05 08:04:48;;;;;;;45.73;22.60;;;5.80;99.90;;;;;;493357;241;29100;-71
2021/04/05 08:06:49;;;;;;;45.63;21.87;;;5.90;99.90;;;;;;493597;241;28490;-70
2021/04/05 08:08:50;;;;;;;47.63;22.70;;;6.00;99.90;;;;;;493623;241;27771;-70
2021/04/05 08:10:52;;;;;;;43.17;21.20;;;6.00;99.90;;;;;;493650;241;27598;-73
2021/04/05 08:12:53;;;;;;;45.40;22.80;;;6.00;99.90;;;;;;493630;241;28880;-73
2021/04/05 08:14:54;;;;;;;44.27;23.03;;;6.10;99.90;;;;;;493510;241;28361;-73
2021/04/05 08:16:55;;;;;;;45.00;22.40;;;6.00;99.90;;;;;;493487;241;27836;-73
2021/04/05 08:18:57;;;;;;;52.07;24.07;;;6.00;99.90;;;;;;493503;241;27996;-71
2021/04/05 08:20:58;;;;;;;63.10;24.63;;;6.10;99.90;;;;;;493480;241;28377;-70
2021/04/05 08:22:59;;;;;;;44.37;21.50;;;6.10;99.90;;;;;;493455;239;28314;-70
2021/04/05 08:25:00;;;;;;;41.47;21.20;;;6.10;99.90;;;;;;493456;241;29269;-71
2021/04/05 08:27:02;;;;;;;39.63;21.30;;;6.00;99.90;;;;;;493469;239;27858;-71
2021/04/05 08:29:03;;;;;;;44.73;22.60;;;6.00;99.90;;;;;;493489;241;28956;-71
2021/04/05 08:31:04;;;;;;;44.03;22.93;;;6.10;99.90;;;;;;493502;241;27822;-71
2021/04/05 08:33:05;;;;;;;43.03;22.00;;;6.10;99.90;;;;;;493437;241;28338;-71
2021/04/05 08:35:07;;;;;;;45.40;23.97;;;6.00;99.90;;;;;;492952;241;27946;-74
2021/04/05 08:37:08;;;;;;;46.37;23.90;;;6.00;99.90;;;;;;493429;241;27590;-71
2021/04/05 08:39:12;;;;;;;46.67;23.03;;;6.00;99.90;;;;;;493467;241;29946;-71
2021/04/05 08:41:10;;;;;;;41.15;22.50;;;6.00;99.90;;;;;;493225;240;29335;-75
2021/04/05 08:43:12;;;;;;;47.27;23.50;;;5.90;99.90;;;;;;493493;241;27405;-73
2021/04/05 08:45:13;;;;;;;49.00;23.03;;;5.80;99.90;;;;;;493447;241;28947;-71
2021/04/05 08:47:14;;;;;;;42.10;21.65;;;5.80;99.90;;;;;;493456;241;28944;-73
2021/04/05 08:49:15;;;;;;;57.47;22.93;;;5.70;99.90;;;;;;493451;241;27616;-70
2021/04/05 08:51:17;;;;;;;46.83;24.23;;;5.70;99.90;;;;;;493455;241;29327;-71
2021/04/05 08:53:18;;;;;;;44.53;24.47;;;5.70;99.90;;;;;;493469;241;29389;-70
2021/04/05 08:55:20;;;;;;;46.17;23.00;;;5.70;99.90;;;;;;493548;241;28349;-71
2021/04/05 08:57:20;;;;;;;41.37;21.58;;;5.60;99.90;;;;;;493593;241;28860;-71
2021/04/05 08:59:22;;;;;;;53.87;24.00;;;5.70;99.90;;;;;;493562;241;27516;-73
2021/04/05 09:01:23;;;;;;;48.90;24.37;;;5.80;99.90;;;;;;493177;241;27493;-73
2021/04/05 09:03:24;;;;;;;43.97;22.27;;;5.80;99.90;;;;;;493122;241;27600;-73
2021/04/05 09:05:25;;;;;;;42.62;22.62;;;5.80;99.90;;;;;;493310;241;29319;-73
2021/04/05 09:07:27;;;;;;;47.00;23.87;;;5.80;99.90;;;;;;493432;241;27603;-71
2021/04/05 09:09:28;;;;;;;43.10;21.90;;;5.80;99.90;;;;;;493420;241;27496;-71
2021/04/05 09:11:29;;;;;;;43.55;23.23;;;5.70;99.90;;;;;;493420;240;27501;-71
2021/04/05 09:13:31;;;;;;;48.75;22.65;;;5.80;99.90;;;;;;493510;241;27418;-73
2021/04/05 09:15:32;;;;;;;49.63;23.40;;;5.80;99.90;;;;;;493484;241;28018;-70
2021/04/05 09:17:35;;;;;;;46.97;22.25;;;5.80;99.90;;;;;;492966;241;27494;-71
2021/04/05 09:19:34;;;;;;;45.05;23.00;;;5.80;99.90;;;;;;492871;241;27478;-70
2021/04/05 09:21:36;;;;;;;44.08;22.37;;;5.90;99.90;;;;;;492923;241;27505;-71
2021/04/05 09:23:37;;;;;;;45.73;22.10;;;5.90;99.90;;;;;;492643;241;27941;-71
2021/04/05 09:25:38;;;;;;;44.28;21.80;;;6.00;99.90;;;;;;492874;240;29573;-71
2021/04/05 09:27:39;;;;;;;47.55;23.40;;;6.00;99.90;;;;;;492964;241;27595;-71
2021/04/05 09:29:41;;;;;;;42.95;20.98;;;6.00;99.90;;;;;;492997;241;27521;-70
2021/04/05 09:31:42;;;;;;;50.53;22.43;;;6.00;99.90;;;;;;493508;241;27478;-71
2021/04/05 09:33:43;;;;;;;52.25;23.25;;;6.00;99.90;;;;;;493637;241;27667;-71
2021/04/05 09:35:44;;;;;;;43.97;21.73;;;6.10;99.90;;;;;;493623;241;28013;-71
2021/04/05 09:37:46;;;;;;;44.30;23.02;;;6.00;99.90;;;;;;493548;241;28687;-71
2021/04/05 09:39:47;;;;;;;44.50;22.05;;;6.00;99.90;;;;;;493463;241;27416;-72
2021/04/05 09:41:49;;;;;;;46.90;22.90;;;6.00;99.90;;;;;;493452;241;27529;-71
2021/04/05 09:43:49;;;;;;;42.10;21.93;;;6.10;99.90;;;;;;493456;241;28873;-71
2021/04/05 09:45:51;;;;;;;47.70;22.50;;;6.10;99.90;;;;;;493490;241;28821;-71
2021/04/05 09:47:52;;;;;;;41.10;20.15;;;6.10;99.90;;;;;;493440;241;28433;-71
2021/04/05 09:49:53;;;;;;;41.13;21.58;;;6.20;99.90;;;;;;493424;240;27542;-73
2021/04/05 09:51:55;;;;;;;49.40;23.13;;;6.20;99.90;;;;;;493429;241;27610;-71
2021/04/05 09:53:56;;;;;;;47.37;22.73;;;6.20;99.90;;;;;;493319;241;28557;-71
2021/04/05 09:55:57;;;;;;;47.03;21.40;;;6.20;99.90;;;;;;493519;240;28906;-71
2021/04/05 09:57:58;;;;;;;45.73;21.97;;;6.30;99.90;;;;;;493447;241;28927;-71
2021/04/05 10:00:00;;;;;;;45.93;20.57;;;6.40;99.90;;;;;;493431;241;29241;-71
2021/04/05 10:02:01;;;;;;;42.10;20.73;;;6.30;99.90;;;;;;493448;241;28312;-71
2021/04/05 10:04:02;;;;;;;41.03;20.97;;;6.40;99.90;;;;;;493457;241;28636;-73
2021/04/05 10:06:03;;;;;;;42.33;20.93;;;6.40;99.90;;;;;;493441;241;28122;-73
2021/04/05 10:08:05;;;;;;;40.30;20.93;;;6.50;99.90;;;;;;493431;241;28237;-73
2021/04/05 10:10:06;;;;;;;44.90;20.80;;;6.50;99.90;;;;;;493423;241;27938;-73
2021/04/05 10:12:07;;;;;;;38.23;20.20;;;6.60;99.90;;;;;;493416;241;27962;-73
2021/04/05 10:14:08;;;;;;;41.20;20.27;;;6.70;99.90;;;;;;493450;241;27873;-73
2021/04/05 10:16:10;;;;;;;35.83;19.90;;;6.70;99.90;;;;;;493433;241;27883;-74
2021/04/05 10:18:11;;;;;;;40.10;19.70;;;6.70;99.90;;;;;;493452;241;28469;-73
2021/04/05 10:20:12;;;;;;;40.43;20.97;;;6.70;99.90;;;;;;493466;241;28033;-73
2021/04/05 10:22:13;;;;;;;37.87;19.27;;;6.80;99.90;;;;;;493445;241;29154;-73
2021/04/05 10:24:15;;;;;;;37.00;18.30;;;6.80;99.90;;;;;;493455;241;27749;-73